sensor_id;sensor_type;location;lat;lon;timestamp;pressure;altitude;pressure_sealevel;temperature;humidity
69667;BME280;66534;52.370;4.832;2023-02-19T00:00:22;101752.69;;;9.18;100.00
69667;BME280;66534;52.370;4.832;2023-02-19T00:00:52;101749.25;;;9.16;100.00
69667;BME280;66534;52.370;4.832;2023-02-19T00:01:23;101748.31;;;9.19;100.00
69667;BME280;66534;52.370;4.832;2023-02-19T00:01:57;101757.00;;;9.21;100.00
69667;BME280;66534;52.370;4.832;2023-02-19T00:02:28;101740.41;;;9.22;100.00
69667;BME280;66534;52.370;4.832;2023-02-19T00:02:58;101746.56;;;9.19;100.00
69667;BME280;66534;52.370;4.832;2023-02-19T00:03:28;101747.53;;;9.15;100.00
69667;BME280;66534;52.370;4.832;2023-02-19T00:04:03;101750.13;;;9.17;100.00
69667;BME280;66534;52.370;4.832;2023-02-19T00:04:36;101746.47;;;9.22;100.00
69667;BME280;66534;52.370;4.832;2023-02-19T00:05:06;101746.38;;;9.27;100.00
69667;BME280;66534;52.370;4.832;2023-02-19T00:05:37;101743.13;;;9.17;100.00
69667;BME280;66534;52.370;4.832;2023-02-19T00:06:08;101742.22;;;9.18;100.00
69667;BME280;66534;52.370;4.832;2023-02-19T00:06:40;101749.00;;;9.27;100.00
69667;BME280;66534;52.370;4.832;2023-02-19T00:07:11;101737.81;;;9.20;100.00
69667;BME280;66534;52.370;4.832;2023-02-19T00:07:42;101749.88;;;9.26;100.00
69667;BME280;66534;52.370;4.832;2023-02-19T00:08:12;101744.59;;;9.28;100.00
69667;BME280;66534;52.370;4.832;2023-02-19T00:08:42;101749.97;;;9.23;100.00
69667;BME280;66534;52.370;4.832;2023-02-19T00:09:14;101753.41;;;9.25;100.00
69667;BME280;66534;52.370;4.832;2023-02-19T00:09:46;101755.91;;;9.30;100.00
69667;BME280;66534;52.370;4.832;2023-02-19T00:10:16;101745.50;;;9.28;100.00
69667;BME280;66534;52.370;4.832;2023-02-19T00:10:47;101752.50;;;9.26;100.00
69667;BME280;66534;52.370;4.832;2023-02-19T00:11:18;101755.91;;;9.30;100.00
69667;BME280;66534;52.370;4.832;2023-02-19T00:11:50;101757.63;;;9.32;100.00
69667;BME280;66534;52.370;4.832;2023-02-19T00:12:20;101763.72;;;9.31;100.00
69667;BME280;66534;52.370;4.832;2023-02-19T00:12:51;101762.06;;;9.27;100.00
69667;BME280;66534;52.370;4.832;2023-02-19T00:13:21;101758.47;;;9.33;100.00
69667;BME280;66534;52.370;4.832;2023-02-19T00:13:52;101757.75;;;9.26;100.00
69667;BME280;66534;52.370;4.832;2023-02-19T00:14:24;101753.25;;;9.31;100.00
69667;BME280;66534;52.370;4.832;2023-02-19T00:14:54;101757.63;;;9.31;100.00
69667;BME280;66534;52.370;4.832;2023-02-19T00:15:26;101762.88;;;9.31;100.00
69667;BME280;66534;52.370;4.832;2023-02-19T00:15:56;101755.91;;;9.30;100.00
69667;BME280;66534;52.370;4.832;2023-02-19T00:16:27;101753.31;;;9.30;100.00
69667;BME280;66534;52.370;4.832;2023-02-19T00:17:03;101762.00;;;9.30;100.00
69667;BME280;66534;52.370;4.832;2023-02-19T00:17:33;101753.31;;;9.30;100.00
69667;BME280;66534;52.370;4.832;2023-02-19T00:18:03;101757.63;;;9.32;100.00
69667;BME280;66534;52.370;4.832;2023-02-19T00:18:34;101762.81;;;9.34;100.00
69667;BME280;66534;52.370;4.832;2023-02-19T00:19:06;101766.34;;;9.31;100.00
69667;BME280;66534;52.370;4.832;2023-02-19T00:19:40;101760.31;;;9.29;100.00
69667;BME280;66534;52.370;4.832;2023-02-19T00:20:11;101764.75;;;9.26;100.00
69667;BME280;66534;52.370;4.832;2023-02-19T00:20:41;101759.47;;;9.27;100.00
69667;BME280;66534;52.370;4.832;2023-02-19T00:21:12;101762.06;;;9.27;100.00
69667;BME280;66534;52.370;4.832;2023-02-19T00:21:43;101761.38;;;9.20;100.00
69667;BME280;66534;52.370;4.832;2023-02-19T00:22:13;101756.09;;;9.22;100.00
69667;BME280;66534;52.370;4.832;2023-02-19T00:22:44;101764.75;;;9.26;100.00
69667;BME280;66534;52.370;4.832;2023-02-19T00:23:14;101764.75;;;9.26;100.00
69667;BME280;66534;52.370;4.832;2023-02-19T00:23:48;101755.97;;;9.28;100.00
69667;BME280;66534;52.370;4.832;2023-02-19T00:24:20;101761.16;;;9.30;100.00
69667;BME280;66534;52.370;4.832;2023-02-19T00:24:50;101757.69;;;9.28;100.00
69667;BME280;66534;52.370;4.832;2023-02-19T00:25:21;101763.91;;;9.23;100.00
69667;BME280;66534;52.370;4.832;2023-02-19T00:25:51;101756.94;;;9.24;100.00
69667;BME280;66534;52.370;4.832;2023-02-19T00:26:22;101767.44;;;9.22;100.00
69667;BME280;66534;52.370;4.832;2023-02-19T00:26:52;101759.56;;;9.22;100.00
69667;BME280;66534;52.370;4.832;2023-02-19T00:27:23;101771.81;;;9.22;100.00
69667;BME280;66534;52.370;4.832;2023-02-19T00:27:53;101759.81;;;9.13;100.00
69667;BME280;66534;52.370;4.832;2023-02-19T00:28:23;101755.34;;;9.17;100.00
69667;BME280;66534;52.370;4.832;2023-02-19T00:28:54;101759.56;;;9.24;100.00
69667;BME280;66534;52.370;4.832;2023-02-19T00:29:26;101761.38;;;9.20;100.00
69667;BME280;66534;52.370;4.832;2023-02-19T00:29:56;101766.72;;;9.16;100.00
69667;BME280;66534;52.370;4.832;2023-02-19T00:30:27;101765.78;;;9.18;100.00
69667;BME280;66534;52.370;4.832;2023-02-19T00:31:05;101763.03;;;9.25;100.00
69667;BME280;66534;52.370;4.832;2023-02-19T00:31:44;101762.06;;;9.27;100.00
69667;BME280;66534;52.370;4.832;2023-02-19T00:32:15;101764.81;;;9.22;100.00
69667;BME280;66534;52.370;4.832;2023-02-19T00:32:49;101762.94;;;9.28;100.00
69667;BME280;66534;52.370;4.832;2023-02-19T00:33:20;101776.97;;;9.25;100.00
69667;BME280;66534;52.370;4.832;2023-02-19T00:33:51;101770.94;;;9.21;100.00
69667;BME280;66534;52.370;4.832;2023-02-19T00:34:23;101766.53;;;9.23;100.00
69667;BME280;66534;52.370;4.832;2023-02-19T00:34:53;101768.38;;;9.20;100.00
69667;BME280;66534;52.370;4.832;2023-02-19T00:35:24;101771.81;;;9.22;100.00
69667;BME280;66534;52.370;4.832;2023-02-19T00:35:54;101769.25;;;9.20;100.00
69667;BME280;66534;52.370;4.832;2023-02-19T00:36:29;101777.09;;;9.19;100.00
69667;BME280;66534;52.370;4.832;2023-02-19T00:37:00;101765.75;;;9.20;100.00
69667;BME280;66534;52.370;4.832;2023-02-19T00:37:30;101768.38;;;9.20;100.00
69667;BME280;66534;52.370;4.832;2023-02-19T00:38:01;101775.41;;;9.18;100.00
69667;BME280;66534;52.370;4.832;2023-02-19T00:38:34;101771.75;;;9.23;100.00
69667;BME280;66534;52.370;4.832;2023-02-19T00:39:06;101773.41;;;9.28;100.00
69667;BME280;66534;52.370;4.832;2023-02-19T00:39:37;101775.41;;;9.18;100.00
69667;BME280;66534;52.370;4.832;2023-02-19T00:40:08;101773.78;;;9.12;100.00
69667;BME280;66534;52.370;4.832;2023-02-19T00:40:38;101773.69;;;9.15;100.00
69667;BME280;66534;52.370;4.832;2023-02-19T00:41:09;101778.06;;;9.16;100.00
69667;BME280;66534;52.370;4.832;2023-02-19T00:41:50;101791.16;;;9.16;100.00
69667;BME280;66534;52.370;4.832;2023-02-19T00:42:21;101784.16;;;9.17;100.00
69667;BME280;66534;52.370;4.832;2023-02-19T00:42:51;101777.28;;;9.13;100.00
69667;BME280;66534;52.370;4.832;2023-02-19T00:43:22;101771.19;;;9.12;100.00
69667;BME280;66534;52.370;4.832;2023-02-19T00:43:55;101773.00;;;9.09;100.00
69667;BME280;66534;52.370;4.832;2023-02-19T00:44:33;101779.25;;;9.03;100.00
69667;BME280;66534;52.370;4.832;2023-02-19T00:45:03;101776.59;;;9.05;100.00
69667;BME280;66534;52.370;4.832;2023-02-19T00:45:34;101782.56;;;9.10;100.00
69667;BME280;66534;52.370;4.832;2023-02-19T00:46:04;101772.09;;;9.10;100.00
69667;BME280;66534;52.370;4.832;2023-02-19T00:46:42;101783.41;;;9.10;100.00
69667;BME280;66534;52.370;4.832;2023-02-19T00:47:14;101772.22;;;9.05;100.00
69667;BME280;66534;52.370;4.832;2023-02-19T00:47:44;101780.97;;;9.04;100.00
69667;BME280;66534;52.370;4.832;2023-02-19T00:48:14;101779.25;;;9.02;100.00
69667;BME280;66534;52.370;4.832;2023-02-19T00:48:45;101783.69;;;8.98;100.00
69667;BME280;66534;52.370;4.832;2023-02-19T00:49:20;101785.41;;;9.01;100.00
69667;BME280;66534;52.370;4.832;2023-02-19T00:49:52;101780.06;;;9.05;100.00
69667;BME280;66534;52.370;4.832;2023-02-19T00:50:22;101782.78;;;9.01;100.00
69667;BME280;66534;52.370;4.832;2023-02-19T00:50:52;101776.69;;;9.00;100.00
69667;BME280;66534;52.370;4.832;2023-02-19T00:51:24;101782.72;;;9.04;100.00
69667;BME280;66534;52.370;4.832;2023-02-19T00:51:56;101780.06;;;9.05;100.00
69667;BME280;66534;52.370;4.832;2023-02-19T00:52:27;101776.53;;;9.06;100.00
69667;BME280;66534;52.370;4.832;2023-02-19T00:52:57;101779.25;;;9.03;100.00
69667;BME280;66534;52.370;4.832;2023-02-19T00:53:27;101780.97;;;9.04;100.00
69667;BME280;66534;52.370;4.832;2023-02-19T00:53:58;101782.84;;;8.97;100.00
69667;BME280;66534;52.370;4.832;2023-02-19T00:54:29;101777.56;;;9.01;100.00
69667;BME280;66534;52.370;4.832;2023-02-19T00:55:00;101783.59;;;9.03;100.00
69667;BME280;66534;52.370;4.832;2023-02-19T00:55:31;101786.19;;;9.04;100.00
69667;BME280;66534;52.370;4.832;2023-02-19T00:56:01;101777.31;;;9.10;100.00
69667;BME280;66534;52.370;4.832;2023-02-19T00:56:32;101774.78;;;9.07;100.00
69667;BME280;66534;52.370;4.832;2023-02-19T00:57:03;101771.41;;;9.03;100.00
69667;BME280;66534;52.370;4.832;2023-02-19T00:57:35;101772.22;;;9.05;100.00
69667;BME280;66534;52.370;4.832;2023-02-19T00:58:05;101768.66;;;9.08;100.00
69667;BME280;66534;52.370;4.832;2023-02-19T00:58:36;101767.03;;;9.02;100.00
69667;BME280;66534;52.370;4.832;2023-02-19T00:59:06;101772.38;;;8.99;100.00
69667;BME280;66534;52.370;4.832;2023-02-19T00:59:37;101767.13;;;8.99;100.00
69667;BME280;66534;52.370;4.832;2023-02-19T01:00:07;101770.50;;;9.04;100.00
69667;BME280;66534;52.370;4.832;2023-02-19T01:00:39;101781.03;;;9.01;100.00
69667;BME280;66534;52.370;4.832;2023-02-19T01:01:09;101771.41;;;9.02;100.00
69667;BME280;66534;52.370;4.832;2023-02-19T01:01:40;101773.09;;;9.04;100.00
69667;BME280;66534;52.370;4.832;2023-02-19T01:02:13;101765.31;;;9.01;100.00
69667;BME280;66534;52.370;4.832;2023-02-19T01:02:43;101771.41;;;9.03;100.00
69667;BME280;66534;52.370;4.832;2023-02-19T01:03:13;101774.88;;;9.04;100.00
69667;BME280;66534;52.370;4.832;2023-02-19T01:03:44;101769.59;;;9.05;100.00
69667;BME280;66534;52.370;4.832;2023-02-19T01:04:15;101766.19;;;9.02;100.00
69667;BME280;66534;52.370;4.832;2023-02-19T01:04:46;101776.69;;;9.00;100.00
69667;BME280;66534;52.370;4.832;2023-02-19T01:05:16;101774.00;;;9.03;100.00
69667;BME280;66534;52.370;4.832;2023-02-19T01:05:47;101779.25;;;9.03;100.00
69667;BME280;66534;52.370;4.832;2023-02-19T01:06:19;101776.59;;;9.05;100.00
69667;BME280;66534;52.370;4.832;2023-02-19T01:06:49;101779.25;;;9.02;100.00
69667;BME280;66534;52.370;4.832;2023-02-19T01:07:20;101774.06;;;9.00;100.00
69667;BME280;66534;52.370;4.832;2023-02-19T01:07:50;101780.91;;;9.06;100.00
69667;BME280;66534;52.370;4.832;2023-02-19T01:08:21;101779.16;;;9.06;100.00
69667;BME280;66534;52.370;4.832;2023-02-19T01:08:51;101781.03;;;9.01;100.00
69667;BME280;66534;52.370;4.832;2023-02-19T01:09:22;101779.25;;;9.03;100.00
69667;BME280;66534;52.370;4.832;2023-02-19T01:09:52;101780.91;;;9.07;100.00
69667;BME280;66534;52.370;4.832;2023-02-19T01:10:23;101776.47;;;9.09;100.00
69667;BME280;66534;52.370;4.832;2023-02-19T01:10:53;101785.13;;;9.13;100.00
69667;BME280;66534;52.370;4.832;2023-02-19T01:11:23;101788.53;;;9.16;100.00
69667;BME280;66534;52.370;4.832;2023-02-19T01:11:54;101782.09;;;9.30;100.00
69667;BME280;66534;52.370;4.832;2023-02-19T01:12:24;101785.06;;;9.16;100.00
69667;BME280;66534;52.370;4.832;2023-02-19T01:12:57;101785.34;;;9.04;100.00
69667;BME280;66534;52.370;4.832;2023-02-19T01:13:27;101780.16;;;9.01;100.00
69667;BME280;66534;52.370;4.832;2023-02-19T01:13:59;101784.50;;;9.02;100.00
69667;BME280;66534;52.370;4.832;2023-02-19T01:14:30;101784.47;;;9.03;100.00
69667;BME280;66534;52.370;4.832;2023-02-19T01:15:01;101779.13;;;9.08;100.00
69667;BME280;66534;52.370;4.832;2023-02-19T01:15:32;101791.38;;;9.07;100.00
69667;BME280;66534;52.370;4.832;2023-02-19T01:16:12;101786.09;;;9.09;100.00
69667;BME280;66534;52.370;4.832;2023-02-19T01:16:45;101787.50;;;9.22;100.00
69667;BME280;66534;52.370;4.832;2023-02-19T01:17:15;101782.34;;;9.19;100.00
69667;BME280;66534;52.370;4.832;2023-02-19T01:17:45;101790.19;;;9.19;100.00
69667;BME280;66534;52.370;4.832;2023-02-19T01:18:16;101792.88;;;9.17;100.00
69667;BME280;66534;52.370;4.832;2023-02-19T01:18:47;101788.53;;;9.15;100.00
69667;BME280;66534;52.370;4.832;2023-02-19T01:19:17;101785.69;;;9.26;100.00
69667;BME280;66534;52.370;4.832;2023-02-19T01:19:48;101786.59;;;9.25;100.00
69667;BME280;66534;52.370;4.832;2023-02-19T01:20:18;101787.69;;;9.14;100.00
69667;BME280;66534;52.370;4.832;2023-02-19T01:20:48;101778.88;;;9.18;100.00
69667;BME280;66534;52.370;4.832;2023-02-19T01:21:20;101793.47;;;9.29;100.00
69667;BME280;66534;52.370;4.832;2023-02-19T01:21:52;101785.69;;;9.26;100.00
69667;BME280;66534;52.370;4.832;2023-02-19T01:22:23;101788.31;;;9.26;100.00
69667;BME280;66534;52.370;4.832;2023-02-19T01:22:53;101790.88;;;9.29;100.00
69667;BME280;66534;52.370;4.832;2023-02-19T01:23:23;101789.31;;;9.20;100.00
69667;BME280;66534;52.370;4.832;2023-02-19T01:23:54;101793.66;;;9.19;100.00
69667;BME280;66534;52.370;4.832;2023-02-19T01:24:26;101793.75;;;9.16;100.00
69667;BME280;66534;52.370;4.832;2023-02-19T01:24:56;101783.34;;;9.13;100.00
69667;BME280;66534;52.370;4.832;2023-02-19T01:25:27;101793.03;;;9.10;100.00
69667;BME280;66534;52.370;4.832;2023-02-19T01:25:57;101793.88;;;9.10;100.00
69667;BME280;66534;52.370;4.832;2023-02-19T01:26:28;101790.47;;;9.08;100.00
69667;BME280;66534;52.370;4.832;2023-02-19T01:27:00;101794.84;;;9.06;100.00
69667;BME280;66534;52.370;4.832;2023-02-19T01:27:30;101800.06;;;9.08;100.00
69667;BME280;66534;52.370;4.832;2023-02-19T01:28:01;101801.91;;;9.04;100.00
69667;BME280;66534;52.370;4.832;2023-02-19T01:28:32;101796.69;;;9.03;100.00
69667;BME280;66534;52.370;4.832;2023-02-19T01:29:02;101794.03;;;9.04;100.00
69667;BME280;66534;52.370;4.832;2023-02-19T01:29:33;101797.53;;;9.05;100.00
69667;BME280;66534;52.370;4.832;2023-02-19T01:30:04;101789.72;;;9.03;100.00
69667;BME280;66534;52.370;4.832;2023-02-19T01:30:35;101792.25;;;9.06;100.00
69667;BME280;66534;52.370;4.832;2023-02-19T01:31:07;101799.13;;;9.10;100.00
69667;BME280;66534;52.370;4.832;2023-02-19T01:31:41;101794.75;;;9.11;100.00
69667;BME280;66534;52.370;4.832;2023-02-19T01:32:12;101793.88;;;9.12;100.00
69667;BME280;66534;52.370;4.832;2023-02-19T01:32:42;101798.09;;;9.17;100.00
69667;BME280;66534;52.370;4.832;2023-02-19T01:33:13;101799.91;;;9.14;100.00
69667;BME280;66534;52.370;4.832;2023-02-19T01:33:47;101800.81;;;9.13;100.00
69667;BME280;66534;52.370;4.832;2023-02-19T01:34:19;101806.91;;;9.13;100.00
69667;BME280;66534;52.370;4.832;2023-02-19T01:34:49;101803.34;;;9.17;100.00
69667;BME280;66534;52.370;4.832;2023-02-19T01:35:20;101794.56;;;9.20;100.00
69667;BME280;66534;52.370;4.832;2023-02-19T01:35:50;101797.94;;;9.23;100.00
69667;BME280;66534;52.370;4.832;2023-02-19T01:36:21;101798.84;;;9.22;100.00
69667;BME280;66534;52.370;4.832;2023-02-19T01:36:52;101798.16;;;9.16;100.00
69667;BME280;66534;52.370;4.832;2023-02-19T01:37:22;101797.25;;;9.17;100.00
69667;BME280;66534;52.370;4.832;2023-02-19T01:37:53;101794.56;;;9.20;100.00
69667;BME280;66534;52.370;4.832;2023-02-19T01:38:23;101802.47;;;9.17;100.00
69667;BME280;66534;52.370;4.832;2023-02-19T01:38:54;101791.97;;;9.18;100.00
69667;BME280;66534;52.370;4.832;2023-02-19T01:39:24;101801.41;;;9.26;100.00
69667;BME280;66534;52.370;4.832;2023-02-19T01:39:55;101804.06;;;9.24;100.00
69667;BME280;66534;52.370;4.832;2023-02-19T01:40:25;101797.09;;;9.23;100.00
69667;BME280;66534;52.370;4.832;2023-02-19T01:40:57;101810.84;;;9.31;100.00
69667;BME280;66534;52.370;4.832;2023-02-19T01:41:29;101803.91;;;9.30;100.00
69667;BME280;66534;52.370;4.832;2023-02-19T01:42:01;101796.22;;;9.24;100.00
69667;BME280;66534;52.370;4.832;2023-02-19T01:42:32;101795.25;;;9.27;100.00
69667;BME280;66534;52.370;4.832;2023-02-19T01:43:02;101802.19;;;9.29;100.00
69667;BME280;66534;52.370;4.832;2023-02-19T01:43:33;101797.81;;;9.30;100.00
69667;BME280;66534;52.370;4.832;2023-02-19T01:45:12;101801.34;;;9.29;100.00
69667;BME280;66534;52.370;4.832;2023-02-19T01:45:47;101801.63;;;9.16;100.00
69667;BME280;66534;52.370;4.832;2023-02-19T01:46:18;101803.28;;;9.19;100.00
69667;BME280;66534;52.370;4.832;2023-02-19T01:46:48;101797.88;;;9.27;100.00
69667;BME280;66534;52.370;4.832;2023-02-19T01:47:20;101803.09;;;9.27;100.00
69667;BME280;66534;52.370;4.832;2023-02-19T01:47:52;101799.69;;;9.23;100.00
69667;BME280;66534;52.370;4.832;2023-02-19T01:48:44;101795.44;;;9.19;100.00
69667;BME280;66534;52.370;4.832;2023-02-19T01:49:32;101803.22;;;9.22;100.00
69667;BME280;66534;52.370;4.832;2023-02-19T01:50:08;101797.25;;;9.17;100.00
69667;BME280;66534;52.370;4.832;2023-02-19T01:50:41;101799.91;;;9.14;100.00
69667;BME280;66534;52.370;4.832;2023-02-19T01:51:16;101799.97;;;9.12;100.00
69667;BME280;66534;52.370;4.832;2023-02-19T01:51:53;101795.69;;;9.08;100.00
69667;BME280;66534;52.370;4.832;2023-02-19T01:52:27;101800.88;;;9.11;100.00
69667;BME280;66534;52.370;4.832;2023-02-19T01:53:01;101799.22;;;9.07;100.00
69667;BME280;66534;52.370;4.832;2023-02-19T01:53:37;101805.25;;;9.09;100.00
69667;BME280;66534;52.370;4.832;2023-02-19T01:54:11;101799.28;;;9.03;100.00
69667;BME280;66534;52.370;4.832;2023-02-19T01:54:44;101801.03;;;9.04;100.00
69667;BME280;66534;52.370;4.832;2023-02-19T01:55:16;101794.91;;;9.05;100.00
69667;BME280;66534;52.370;4.832;2023-02-19T01:55:47;101799.38;;;9.00;100.00
69667;BME280;66534;52.370;4.832;2023-02-19T01:56:22;101797.59;;;9.02;100.00
69667;BME280;66534;52.370;4.832;2023-02-19T01:56:55;101799.41;;;8.98;100.00
69667;BME280;66534;52.370;4.832;2023-02-19T01:57:29;101802.03;;;8.98;100.00
69667;BME280;66534;52.370;4.832;2023-02-19T01:58:06;101806.34;;;9.01;100.00
69667;BME280;66534;52.370;4.832;2023-02-19T01:58:38;101799.41;;;8.98;100.00
69667;BME280;66534;52.370;4.832;2023-02-19T01:59:10;101803.78;;;8.97;100.00
69667;BME280;66534;52.370;4.832;2023-02-19T01:59:41;101809.00;;;8.99;100.00
69667;BME280;66534;52.370;4.832;2023-02-19T02:00:13;101805.47;;;9.00;100.00
69667;BME280;66534;52.370;4.832;2023-02-19T02:00:45;101807.19;;;9.01;100.00
69667;BME280;66534;52.370;4.832;2023-02-19T02:01:16;101809.00;;;8.99;100.00
69667;BME280;66534;52.370;4.832;2023-02-19T02:01:46;101805.53;;;8.97;100.00
69667;BME280;66534;52.370;4.832;2023-02-19T02:02:18;101806.41;;;8.97;100.00
69667;BME280;66534;52.370;4.832;2023-02-19T02:02:49;101812.50;;;8.98;100.00
69667;BME280;66534;52.370;4.832;2023-02-19T02:03:25;101803.72;;;9.01;100.00
69667;BME280;66534;52.370;4.832;2023-02-19T02:03:55;101815.09;;;9.00;100.00
69667;BME280;66534;52.370;4.832;2023-02-19T02:04:26;101804.63;;;9.00;100.00
69667;BME280;66534;52.370;4.832;2023-02-19T02:05:00;101813.34;;;9.00;100.00
69667;BME280;66534;52.370;4.832;2023-02-19T02:06:28;101808.97;;;9.01;100.00
69667;BME280;66534;52.370;4.832;2023-02-19T02:07:03;101802.13;;;8.93;100.00
69667;BME280;66534;52.370;4.832;2023-02-19T02:07:55;101805.50;;;8.98;100.00
69667;BME280;66534;52.370;4.832;2023-02-19T02:08:45;101806.38;;;8.99;100.00
69667;BME280;66534;52.370;4.832;2023-02-19T02:09:34;101809.75;;;9.03;100.00
69667;BME280;66534;52.370;4.832;2023-02-19T02:10:23;101810.59;;;9.05;100.00
69667;BME280;66534;52.370;4.832;2023-02-19T02:10:53;101804.56;;;9.01;100.00
69667;BME280;66534;52.370;4.832;2023-02-19T02:11:25;101811.50;;;9.04;100.00
69667;BME280;66534;52.370;4.832;2023-02-19T02:11:56;101809.75;;;9.04;100.00
69667;BME280;66534;52.370;4.832;2023-02-19T02:12:27;101803.56;;;9.07;100.00
69667;BME280;66534;52.370;4.832;2023-02-19T02:12:58;101810.56;;;9.06;100.00
69667;BME280;66534;52.370;4.832;2023-02-19T02:13:29;101808.84;;;9.05;100.00
69667;BME280;66534;52.370;4.832;2023-02-19T02:14:01;101809.75;;;9.04;100.00
69667;BME280;66534;52.370;4.832;2023-02-19T02:14:33;101815.00;;;9.03;100.00
69667;BME280;66534;52.370;4.832;2023-02-19T02:15:06;101805.47;;;9.00;100.00
69667;BME280;66534;52.370;4.832;2023-02-19T02:18:27;101808.00;;;9.05;100.00
69667;BME280;66534;52.370;4.832;2023-02-19T02:21:46;101812.22;;;9.10;100.00
69667;BME280;66534;52.370;4.832;2023-02-19T02:22:51;101819.22;;;9.10;100.00
69667;BME280;66534;52.370;4.832;2023-02-19T02:23:34;101807.81;;;9.12;100.00
69667;BME280;66534;52.370;4.832;2023-02-19T02:24:19;101803.44;;;9.13;100.00
69667;BME280;66534;52.370;4.832;2023-02-19T02:30:57;101813.06;;;9.11;100.00
69667;BME280;66534;52.370;4.832;2023-02-19T02:32:33;101806.09;;;9.11;100.00
69667;BME280;66534;52.370;4.832;2023-02-19T02:34:17;101815.00;;;9.04;100.00
69667;BME280;66534;52.370;4.832;2023-02-19T02:36:06;101815.09;;;9.00;100.00
69667;BME280;66534;52.370;4.832;2023-02-19T02:36:42;101818.56;;;8.98;100.00
69667;BME280;66534;52.370;4.832;2023-02-19T02:37:16;101817.81;;;8.95;100.00
69667;BME280;66534;52.370;4.832;2023-02-19T02:37:46;101820.44;;;8.95;100.00
69667;BME280;66534;52.370;4.832;2023-02-19T02:38:19;101815.16;;;8.96;100.00
69667;BME280;66534;52.370;4.832;2023-02-19T02:38:53;101819.53;;;8.96;100.00
69667;BME280;66534;52.370;4.832;2023-02-19T02:39:26;101816.00;;;8.97;100.00
69667;BME280;66534;52.370;4.832;2023-02-19T02:39:57;101813.34;;;8.98;100.00
69667;BME280;66534;52.370;4.832;2023-02-19T02:40:29;101811.69;;;8.94;100.00
69667;BME280;66534;52.370;4.832;2023-02-19T02:41:00;101813.50;;;8.92;100.00
69667;BME280;66534;52.370;4.832;2023-02-19T02:41:31;101824.78;;;8.94;100.00
69667;BME280;66534;52.370;4.832;2023-02-19T02:42:02;101815.31;;;8.89;100.00
69667;BME280;66534;52.370;4.832;2023-02-19T02:42:51;101822.41;;;8.84;100.00
69667;BME280;66534;52.370;4.832;2023-02-19T02:43:21;101825.78;;;8.89;100.00
69667;BME280;66534;52.370;4.832;2023-02-19T02:43:52;101818.88;;;8.86;100.00
69667;BME280;66534;52.370;4.832;2023-02-19T02:44:32;101817.03;;;8.90;100.00
69667;BME280;66534;52.370;4.832;2023-02-19T02:45:19;101817.81;;;8.93;100.00
69667;BME280;66534;52.370;4.832;2023-02-19T02:46:05;101825.81;;;8.87;100.00
69667;BME280;66534;52.370;4.832;2023-02-19T02:46:40;101822.25;;;8.90;100.00
69667;BME280;66534;52.370;4.832;2023-02-19T02:47:13;101815.34;;;8.87;100.00
69667;BME280;66534;52.370;4.832;2023-02-19T02:48:55;101825.78;;;8.89;100.00
69667;BME280;66534;52.370;4.832;2023-02-19T02:49:27;101819.75;;;8.85;100.00
69667;BME280;66534;52.370;4.832;2023-02-19T02:49:58;101826.69;;;8.88;100.00
69667;BME280;66534;52.370;4.832;2023-02-19T02:51:32;101837.94;;;8.91;100.00
69667;BME280;66534;52.370;4.832;2023-02-19T02:52:07;101833.53;;;8.93;100.00
69667;BME280;66534;52.370;4.832;2023-02-19T02:52:59;101833.63;;;8.89;100.00
69667;BME280;66534;52.370;4.832;2023-02-19T02:53:57;101825.72;;;8.92;100.00
69667;BME280;66534;52.370;4.832;2023-02-19T02:54:50;101833.63;;;8.90;100.00
69667;BME280;66534;52.370;4.832;2023-02-19T02:55:33;101830.91;;;8.95;100.00
69667;BME280;66534;52.370;4.832;2023-02-19T02:56:10;101824.00;;;8.91;100.00
69667;BME280;66534;52.370;4.832;2023-02-19T02:56:43;101825.66;;;8.95;100.00
69667;BME280;66534;52.370;4.832;2023-02-19T02:57:15;101831.81;;;8.92;100.00
69667;BME280;66534;52.370;4.832;2023-02-19T02:57:47;101836.19;;;8.92;100.00
69667;BME280;66534;52.370;4.832;2023-02-19T02:58:17;101840.56;;;8.91;100.00
69667;BME280;66534;52.370;4.832;2023-02-19T02:58:52;101823.06;;;8.93;100.00
69667;BME280;66534;52.370;4.832;2023-02-19T02:59:25;101827.38;;;8.96;100.00
69667;BME280;66534;52.370;4.832;2023-02-19T03:00:00;101837.94;;;8.91;100.00
69667;BME280;66534;52.370;4.832;2023-02-19T03:00:30;101832.72;;;8.91;100.00
69667;BME280;66534;52.370;4.832;2023-02-19T03:02:06;101832.78;;;8.88;100.00
69667;BME280;66534;52.370;4.832;2023-02-19T03:02:41;101838.75;;;8.93;100.00
69667;BME280;66534;52.370;4.832;2023-02-19T03:03:13;101837.16;;;8.88;100.00
69667;BME280;66534;52.370;4.832;2023-02-19T03:03:47;101840.56;;;8.90;100.00
69667;BME280;66534;52.370;4.832;2023-02-19T03:04:31;101840.63;;;8.88;100.00
69667;BME280;66534;52.370;4.832;2023-02-19T03:05:33;101845.72;;;8.94;100.00
69667;BME280;66534;52.370;4.832;2023-02-19T03:06:21;101847.66;;;8.86;100.00
69667;BME280;66534;52.370;4.832;2023-02-19T03:06:55;101842.38;;;8.88;100.00
69667;BME280;66534;52.370;4.832;2023-02-19T03:07:34;101845.00;;;8.88;100.00
69667;BME280;66534;52.370;4.832;2023-02-19T03:09:14;101843.41;;;8.81;100.00
69667;BME280;66534;52.370;4.832;2023-02-19T03:09:52;101841.63;;;8.83;100.00
69667;BME280;66534;52.370;4.832;2023-02-19T03:10:28;101846.72;;;8.89;100.00
69667;BME280;66534;52.370;4.832;2023-02-19T03:11:06;101850.22;;;8.88;100.00
69667;BME280;66534;52.370;4.832;2023-02-19T03:11:58;101844.00;;;8.93;100.00
69667;BME280;66534;52.370;4.832;2023-02-19T03:12:50;101850.09;;;8.94;100.00
69667;BME280;66534;52.370;4.832;2023-02-19T03:13:43;101855.38;;;8.92;100.00
69667;BME280;66534;52.370;4.832;2023-02-19T03:14:36;101844.91;;;8.92;100.00
69667;BME280;66534;52.370;4.832;2023-02-19T03:15:34;101856.19;;;8.94;100.00